createdAt,value
2018-05-04T00:00:29.431Z,12.90
2018-05-04T00:01:01.073Z,12.90
2018-05-04T00:01:32.723Z,12.90
2018-05-04T00:02:04.379Z,13.00
2018-05-04T00:02:35.997Z,13.00
2018-05-04T00:03:07.644Z,13.00
2018-05-04T00:03:39.293Z,12.90
2018-05-04T00:04:10.957Z,12.90
2018-05-04T00:04:42.601Z,12.90
2018-05-04T00:05:14.244Z,12.80
2018-05-04T00:05:45.909Z,12.90
2018-05-04T00:06:17.539Z,12.90
2018-05-04T00:06:49.191Z,13.00
2018-05-04T00:07:20.824Z,13.00
2018-05-04T00:07:52.465Z,13.00
2018-05-04T00:08:24.107Z,13.00
2018-05-04T00:08:55.747Z,13.00
2018-05-04T00:09:27.402Z,13.20
2018-05-04T00:09:59.052Z,13.30
2018-05-04T00:10:30.680Z,13.30
2018-05-04T00:11:02.317Z,13.20
2018-05-04T00:11:33.959Z,13.10
2018-05-04T00:12:05.592Z,13.10
2018-05-04T00:12:37.212Z,13.20
2018-05-04T00:13:08.867Z,13.20
2018-05-04T00:13:40.481Z,13.10
2018-05-04T00:14:12.118Z,13.10
2018-05-04T00:14:43.736Z,13.00
2018-05-04T00:15:15.360Z,13.00
2018-05-04T00:15:47.009Z,13.10
2018-05-04T00:16:18.620Z,13.00
2018-05-04T00:16:50.272Z,13.10
2018-05-04T00:17:21.902Z,13.10
2018-05-04T00:17:53.534Z,13.30
2018-05-04T00:18:25.164Z,13.40
2018-05-04T00:18:56.798Z,14.00
2018-05-04T00:19:28.426Z,14.00
2018-05-04T00:20:00.068Z,14.00
2018-05-04T00:20:31.712Z,14.10
2018-05-04T00:21:03.348Z,13.90
2018-05-04T00:21:35.022Z,13.80
2018-05-04T00:22:06.658Z,13.70
2018-05-04T00:22:38.295Z,13.60
2018-05-04T00:23:09.907Z,13.50
2018-05-04T00:23:41.530Z,13.40
2018-05-04T00:24:13.146Z,13.60
2018-05-04T00:24:44.796Z,13.80
2018-05-04T00:25:16.420Z,13.80
2018-05-04T00:25:48.072Z,13.90
2018-05-04T00:26:19.839Z,14.30
2018-05-04T00:26:51.408Z,14.30
2018-05-04T00:27:23.060Z,14.30
2018-05-04T00:27:54.708Z,14.10
2018-05-04T00:28:26.361Z,13.90
2018-05-04T00:28:58.000Z,13.80
2018-05-04T00:29:29.622Z,13.70
2018-05-04T00:30:01.269Z,13.60
2018-05-04T00:30:32.916Z,13.60
2018-05-04T00:31:04.560Z,13.60
2018-05-04T00:31:36.192Z,13.50
2018-05-04T00:32:07.837Z,13.50
2018-05-04T00:32:39.459Z,13.40
2018-05-04T00:33:11.082Z,13.40
2018-05-04T00:33:42.708Z,13.30
2018-05-04T00:34:14.348Z,13.30
2018-05-04T00:34:45.984Z,13.30
2018-05-04T00:35:17.600Z,13.30
2018-05-04T00:35:49.262Z,13.40
2018-05-04T00:36:20.905Z,13.20
2018-05-04T00:36:52.542Z,13.40
2018-05-04T00:37:24.162Z,13.50
2018-05-04T00:37:55.810Z,13.50
2018-05-04T00:38:27.450Z,13.40
2018-05-04T00:38:59.074Z,13.40
2018-05-04T00:39:30.704Z,13.60
2018-05-04T00:40:02.384Z,13.40
2018-05-04T00:40:34.022Z,13.30
2018-05-04T00:41:05.660Z,13.50
2018-05-04T00:41:37.294Z,13.40
2018-05-04T00:42:08.936Z,13.40
2018-05-04T00:42:40.602Z,13.30
2018-05-04T00:43:12.239Z,13.30
2018-05-04T00:43:43.849Z,13.30
2018-05-04T00:44:15.499Z,13.40
2018-05-04T00:44:47.128Z,13.40
2018-05-04T00:45:18.762Z,13.40
2018-05-04T00:45:50.398Z,13.60
2018-05-04T00:46:22.098Z,13.70
2018-05-04T00:46:53.747Z,13.70
2018-05-04T00:47:25.374Z,13.60
2018-05-04T00:47:57.026Z,13.50
2018-05-04T00:48:28.672Z,13.40
2018-05-04T00:49:00.306Z,13.30
2018-05-04T00:49:31.926Z,13.20
2018-05-04T00:50:03.565Z,13.20
2018-05-04T00:50:35.199Z,13.20
2018-05-04T00:51:06.846Z,13.20
2018-05-04T00:51:38.472Z,13.30
2018-05-04T00:52:10.092Z,13.30
2018-05-04T00:52:41.720Z,13.30
2018-05-04T00:53:13.364Z,13.30
2018-05-04T00:54:03.530Z,13.30
2018-05-04T00:54:35.124Z,13.30
2018-05-04T00:55:06.757Z,13.20
2018-05-04T00:55:38.388Z,13.20
2018-05-04T00:56:10.045Z,13.30
2018-05-04T00:56:41.682Z,13.40
2018-05-04T00:57:13.303Z,13.30
2018-05-04T00:57:44.938Z,13.30
2018-05-04T00:58:16.553Z,13.30
2018-05-04T00:58:48.186Z,13.40
2018-05-04T00:59:19.811Z,13.60
2018-05-04T00:59:51.428Z,13.50
2018-05-04T01:00:23.064Z,13.60
2018-05-04T01:00:54.713Z,13.50
2018-05-04T01:01:26.376Z,13.40
2018-05-04T01:01:58.000Z,13.40
2018-05-04T01:02:29.636Z,13.30
2018-05-04T01:03:01.288Z,13.30
2018-05-04T01:03:32.924Z,13.30
2018-05-04T01:04:04.562Z,13.40
2018-05-04T01:04:36.188Z,13.50
2018-05-04T01:05:07.816Z,13.60
2018-05-04T01:05:39.459Z,13.60
2018-05-04T01:06:11.135Z,13.60
2018-05-04T01:06:42.766Z,13.70
2018-05-04T01:07:14.400Z,14.30
2018-05-04T01:07:46.044Z,15.10
2018-05-04T01:08:17.714Z,15.60
2018-05-04T01:08:49.344Z,16.30
2018-05-04T01:09:20.996Z,17.00
2018-05-04T01:09:52.624Z,17.30
2018-05-04T01:10:24.280Z,17.30
2018-05-04T01:10:55.892Z,16.90
2018-05-04T01:11:27.544Z,16.80
2018-05-04T01:11:59.185Z,16.70
2018-05-04T01:12:30.806Z,16.60
2018-05-04T01:13:02.466Z,16.30
2018-05-04T01:13:34.120Z,15.90
2018-05-04T01:14:05.771Z,15.60
2018-05-04T01:14:37.384Z,15.50
2018-05-04T01:15:09.048Z,15.20
2018-05-04T01:15:40.698Z,15.50
2018-05-04T01:16:12.324Z,15.80
2018-05-04T01:16:43.992Z,16.10
2018-05-04T01:17:15.644Z,16.20
2018-05-04T01:17:47.272Z,16.20
2018-05-04T01:18:18.904Z,16.30
2018-05-04T01:18:50.554Z,15.90
2018-05-04T01:19:22.202Z,15.60
2018-05-04T01:19:53.841Z,15.30
2018-05-04T01:20:25.496Z,15.00
2018-05-04T01:20:57.138Z,14.90
2018-05-04T01:21:28.846Z,14.50
2018-05-04T01:22:00.390Z,14.40
2018-05-04T01:22:32.044Z,14.30
2018-05-04T01:23:03.689Z,14.30
2018-05-04T01:23:35.304Z,14.20
2018-05-04T01:24:06.938Z,14.10
2018-05-04T01:24:38.578Z,14.00
2018-05-04T01:25:10.204Z,14.10
2018-05-04T01:25:41.848Z,14.30
2018-05-04T01:26:13.486Z,15.20
2018-05-04T01:26:45.138Z,15.80
2018-05-04T01:27:16.792Z,15.80
2018-05-04T01:27:48.432Z,16.30
2018-05-04T01:28:20.062Z,16.40
2018-05-04T01:28:51.687Z,16.60
2018-05-04T01:29:23.302Z,16.70
2018-05-04T01:29:54.940Z,16.80
2018-05-04T01:30:26.576Z,16.90
2018-05-04T01:30:58.240Z,16.80
2018-05-04T01:31:29.880Z,16.70
2018-05-04T01:32:01.544Z,16.60
2018-05-04T01:32:33.178Z,16.30
2018-05-04T01:33:04.792Z,16.30
2018-05-04T01:33:36.428Z,16.60
2018-05-04T01:34:08.068Z,16.60
2018-05-04T01:34:39.712Z,16.40
2018-05-04T01:35:11.346Z,16.10
2018-05-04T01:35:42.953Z,16.00
2018-05-04T01:36:14.614Z,15.80
2018-05-04T01:36:46.246Z,15.60
2018-05-04T01:37:17.904Z,15.20
2018-05-04T01:37:49.544Z,15.10
2018-05-04T01:38:21.173Z,15.00
2018-05-04T01:38:52.814Z,14.70
2018-05-04T01:39:24.450Z,14.50
2018-05-04T01:39:56.114Z,14.40
2018-05-04T01:40:27.748Z,14.40
2018-05-04T01:40:59.354Z,14.40
2018-05-04T01:41:30.998Z,14.40
2018-05-04T01:42:02.640Z,14.30
2018-05-04T01:42:34.260Z,14.30
2018-05-04T01:43:05.878Z,14.30
2018-05-04T01:43:37.496Z,14.40
2018-05-04T01:44:09.128Z,14.40
2018-05-04T01:44:40.752Z,14.50
2018-05-04T01:45:12.384Z,14.40
2018-05-04T01:45:44.043Z,14.40
2018-05-04T01:46:15.682Z,14.30
2018-05-04T01:46:47.337Z,14.30
2018-05-04T01:47:18.963Z,14.30
2018-05-04T01:47:50.582Z,14.50
2018-05-04T01:48:22.212Z,14.60
2018-05-04T01:48:53.863Z,14.40
2018-05-04T01:49:25.495Z,14.60
2018-05-04T01:49:57.137Z,14.60
2018-05-04T01:50:28.776Z,14.50
2018-05-04T01:51:00.410Z,14.50
2018-05-04T01:51:32.051Z,14.60
2018-05-04T01:52:03.689Z,14.60
2018-05-04T01:52:35.312Z,15.10
2018-05-04T01:53:06.930Z,15.50
2018-05-04T01:53:38.557Z,15.40
2018-05-04T01:54:10.220Z,15.20
2018-05-04T01:54:41.866Z,15.10
2018-05-04T01:55:13.476Z,15.20
2018-05-04T01:55:45.126Z,15.20
2018-05-04T01:56:16.770Z,15.00
2018-05-04T01:56:48.386Z,14.90
2018-05-04T01:57:20.029Z,14.90
2018-05-04T01:57:51.673Z,15.10
2018-05-04T01:58:23.302Z,15.10
2018-05-04T01:58:54.926Z,15.00
2018-05-04T01:59:26.548Z,15.00
2018-05-04T01:59:58.194Z,14.80
2018-05-04T02:00:29.828Z,14.70
2018-05-04T02:01:01.482Z,14.60
2018-05-04T02:01:33.122Z,14.60
2018-05-04T02:02:04.754Z,14.60
2018-05-04T02:02:36.416Z,14.60
2018-05-04T02:03:08.082Z,14.60
2018-05-04T02:03:39.749Z,14.60
2018-05-04T02:04:11.413Z,14.70
2018-05-04T02:04:43.096Z,14.70
2018-05-04T02:05:14.765Z,14.70
2018-05-04T02:05:46.430Z,14.90
2018-05-04T02:06:18.097Z,14.80
2018-05-04T02:06:49.767Z,14.90
2018-05-04T02:07:21.420Z,14.90
2018-05-04T02:07:53.153Z,14.80
2018-05-04T02:08:24.724Z,14.70
2018-05-04T02:08:56.359Z,14.70
2018-05-04T02:09:27.978Z,14.70
2018-05-04T02:09:59.647Z,14.70
2018-05-04T02:10:31.319Z,14.70
2018-05-04T02:11:02.968Z,14.70
2018-05-04T02:11:34.608Z,14.70
2018-05-04T02:12:06.304Z,14.70
2018-05-04T02:12:37.929Z,15.60
2018-05-04T02:13:09.560Z,16.10
2018-05-04T02:13:41.202Z,16.30
2018-05-04T02:14:12.854Z,16.10
2018-05-04T02:14:44.482Z,15.80
2018-05-04T02:15:16.136Z,15.50
2018-05-04T02:15:47.748Z,15.50
2018-05-04T02:16:19.392Z,15.30
2018-05-04T02:16:51.020Z,15.30
2018-05-04T02:17:22.634Z,15.20
2018-05-04T02:17:54.258Z,15.20
2018-05-04T02:18:25.908Z,15.10
2018-05-04T02:18:57.554Z,15.00
2018-05-04T02:19:29.247Z,14.90
2018-05-04T02:20:00.892Z,14.90
2018-05-04T02:20:32.513Z,14.80
2018-05-04T02:21:04.158Z,14.70
2018-05-04T02:21:35.790Z,14.80
2018-05-04T02:22:07.436Z,14.90
2018-05-04T02:22:39.084Z,14.90
2018-05-04T02:23:10.700Z,14.90
2018-05-04T02:23:42.351Z,14.90
2018-05-04T02:24:13.966Z,14.80
2018-05-04T02:24:45.585Z,14.70
2018-05-04T02:25:17.249Z,14.80
2018-05-04T02:25:48.881Z,14.80
2018-05-04T02:26:20.506Z,14.60
2018-05-04T02:26:52.128Z,14.60
2018-05-04T02:27:23.754Z,14.60
2018-05-04T02:27:55.362Z,14.60
2018-05-04T02:28:27.000Z,14.70
2018-05-04T02:28:58.616Z,14.70
2018-05-04T02:29:30.296Z,14.70
2018-05-04T02:30:01.910Z,14.70
2018-05-04T02:30:33.561Z,14.70
2018-05-04T02:31:05.219Z,14.70
2018-05-04T02:31:36.873Z,14.70
2018-05-04T02:32:08.512Z,14.70
2018-05-04T02:32:40.120Z,14.80
2018-05-04T02:33:11.761Z,14.90
2018-05-04T02:33:43.385Z,14.90
2018-05-04T02:34:15.033Z,14.90
2018-05-04T02:34:46.676Z,14.90
2018-05-04T02:35:18.317Z,14.90
2018-05-04T02:35:49.962Z,14.90
2018-05-04T02:36:21.619Z,14.90
2018-05-04T02:36:53.240Z,14.90
2018-05-04T02:37:24.851Z,15.00
2018-05-04T02:37:56.504Z,15.00
2018-05-04T02:38:28.155Z,15.00
2018-05-04T02:38:59.767Z,15.00
2018-05-04T02:39:31.395Z,14.90
2018-05-04T02:40:03.065Z,14.90
2018-05-04T02:40:34.700Z,15.00
2018-05-04T02:41:06.342Z,15.00
2018-05-04T02:41:38.011Z,15.00
2018-05-04T02:42:09.663Z,14.90
2018-05-04T02:42:41.265Z,14.90
2018-05-04T02:43:12.897Z,14.90
2018-05-04T02:43:44.518Z,15.00
2018-05-04T02:44:16.144Z,15.00
2018-05-04T02:44:47.786Z,15.00
2018-05-04T02:45:19.410Z,15.10
2018-05-04T02:45:51.026Z,15.10
2018-05-04T02:46:22.674Z,15.10
2018-05-04T02:46:54.311Z,15.10
2018-05-04T02:47:25.959Z,15.10
2018-05-04T02:47:57.580Z,15.20
2018-05-04T02:48:29.236Z,15.00
2018-05-04T02:49:00.856Z,15.00
2018-05-04T02:49:33.228Z,15.00
2018-05-04T02:50:04.909Z,15.00
2018-05-04T02:50:36.546Z,14.90
2018-05-04T02:51:08.158Z,15.00
2018-05-04T02:51:39.828Z,14.90
2018-05-04T02:52:11.472Z,14.90
2018-05-04T02:52:43.115Z,15.00
2018-05-04T02:53:14.755Z,14.90
2018-05-04T02:53:46.382Z,15.00
2018-05-04T02:54:17.994Z,15.00
2018-05-04T02:54:49.636Z,15.00
2018-05-04T02:55:21.391Z,14.90
2018-05-04T02:55:52.935Z,14.90
2018-05-04T02:56:24.575Z,15.00
2018-05-04T02:56:56.211Z,15.00
2018-05-04T02:57:27.846Z,15.00
2018-05-04T02:57:59.472Z,15.00
2018-05-04T02:58:31.089Z,15.00
2018-05-04T02:59:02.725Z,15.10
2018-05-04T02:59:34.350Z,15.00
2018-05-04T03:00:06.017Z,15.00
2018-05-04T03:00:37.638Z,15.00
2018-05-04T03:01:09.276Z,15.00
2018-05-04T03:01:40.895Z,15.00
2018-05-04T03:02:12.530Z,15.00
2018-05-04T03:02:44.184Z,15.00
2018-05-04T03:03:15.827Z,15.10
2018-05-04T03:03:47.470Z,15.10
2018-05-04T03:04:19.129Z,15.20
2018-05-04T03:04:50.781Z,15.20
2018-05-04T03:05:22.415Z,15.20
2018-05-04T03:05:54.072Z,15.20
2018-05-04T03:06:25.700Z,15.20
2018-05-04T03:06:57.344Z,15.20
2018-05-04T03:07:28.966Z,15.20
2018-05-04T03:08:00.608Z,15.20
2018-05-04T03:08:32.246Z,15.10
2018-05-04T03:09:03.950Z,15.00
2018-05-04T03:09:35.597Z,15.10
2018-05-04T03:10:07.231Z,15.10
2018-05-04T03:10:38.860Z,15.10
2018-05-04T03:11:10.500Z,15.30
2018-05-04T03:11:42.121Z,15.30
2018-05-04T03:12:13.776Z,15.30
2018-05-04T03:12:45.416Z,15.20
2018-05-04T03:13:17.058Z,15.30
2018-05-04T03:13:48.666Z,15.40
2018-05-04T03:14:20.291Z,15.50
2018-05-04T03:14:51.942Z,15.30
2018-05-04T03:15:23.580Z,15.30
2018-05-04T03:15:55.216Z,15.30
2018-05-04T03:16:26.831Z,15.40
2018-05-04T03:16:58.463Z,15.40
2018-05-04T03:17:30.089Z,15.30
2018-05-04T03:18:01.741Z,15.30
2018-05-04T03:18:33.350Z,15.40
2018-05-04T03:19:04.961Z,15.30
2018-05-04T03:19:36.584Z,15.30
2018-05-04T03:20:08.232Z,15.50
2018-05-04T03:20:39.882Z,15.30
2018-05-04T03:21:11.517Z,15.30
2018-05-04T03:21:43.158Z,15.30
2018-05-04T03:22:14.787Z,15.30
2018-05-04T03:22:46.388Z,15.20
2018-05-04T03:23:18.015Z,15.40
2018-05-04T03:23:49.634Z,15.30
2018-05-04T03:24:21.274Z,15.40
2018-05-04T03:24:52.902Z,15.40
2018-05-04T03:25:24.530Z,15.50
2018-05-04T03:25:56.153Z,15.50
2018-05-04T03:26:27.789Z,15.60
2018-05-04T03:26:59.410Z,15.50
2018-05-04T03:27:31.037Z,15.50
2018-05-04T03:28:02.673Z,15.40
2018-05-04T03:28:34.303Z,15.40
2018-05-04T03:29:05.964Z,15.30
2018-05-04T03:29:37.615Z,15.40
2018-05-04T03:30:09.246Z,15.40
2018-05-04T03:30:40.897Z,15.50
2018-05-04T03:31:12.521Z,15.40
2018-05-04T03:31:44.161Z,15.40
2018-05-04T03:32:15.803Z,15.50
2018-05-04T03:32:47.430Z,15.50
2018-05-04T03:33:19.039Z,15.50
2018-05-04T03:33:50.662Z,15.50
2018-05-04T03:34:22.288Z,15.60
2018-05-04T03:34:53.917Z,15.80
2018-05-04T03:35:25.552Z,15.80
2018-05-04T03:35:57.172Z,16.00
2018-05-04T03:36:28.781Z,16.00
2018-05-04T03:37:00.410Z,15.90
2018-05-04T03:37:32.061Z,15.80
2018-05-04T03:38:03.702Z,15.70
2018-05-04T03:38:35.344Z,15.80
2018-05-04T03:39:06.980Z,15.70
2018-05-04T03:39:38.634Z,15.70
2018-05-04T03:40:10.271Z,15.60
2018-05-04T03:40:41.897Z,15.60
2018-05-04T03:41:13.520Z,15.60
2018-05-04T03:41:45.179Z,15.60
2018-05-04T03:42:16.804Z,15.60
2018-05-04T03:42:48.490Z,15.60
2018-05-04T03:43:20.104Z,15.80
2018-05-04T03:43:51.750Z,15.80
2018-05-04T03:44:23.444Z,16.00
2018-05-04T03:44:55.130Z,15.90
2018-05-04T03:45:26.766Z,16.00
2018-05-04T03:45:58.384Z,16.00
2018-05-04T03:46:30.052Z,16.00
2018-05-04T03:47:01.708Z,16.00
2018-05-04T03:47:33.335Z,16.10
2018-05-04T03:48:04.986Z,16.10
2018-05-04T03:48:36.605Z,16.10
2018-05-04T03:49:08.224Z,16.10
2018-05-04T03:49:39.850Z,16.00
2018-05-04T03:50:11.498Z,16.10
2018-05-04T03:50:43.156Z,16.20
2018-05-04T03:51:14.794Z,16.10
2018-05-04T03:51:46.432Z,16.10
2018-05-04T03:52:18.054Z,16.10
2018-05-04T03:52:49.684Z,16.20
2018-05-04T03:53:21.328Z,16.20
2018-05-04T03:53:52.950Z,16.10
2018-05-04T03:54:24.550Z,16.10
2018-05-04T03:54:56.177Z,16.10
2018-05-04T03:55:27.816Z,16.10
2018-05-04T03:55:59.457Z,16.20
2018-05-04T03:56:31.067Z,16.20
2018-05-04T03:57:21.348Z,16.20
2018-05-04T03:58:11.581Z,16.30
2018-05-04T03:59:01.962Z,16.30
2018-05-04T03:59:52.228Z,16.20
2018-05-04T04:00:42.260Z,16.30
2018-05-04T04:01:32.564Z,16.30
2018-05-04T04:02:22.692Z,16.30
2018-05-04T04:03:12.748Z,16.30
2018-05-04T04:04:03.020Z,16.40
2018-05-04T04:04:34.684Z,16.40
2018-05-04T04:05:06.327Z,16.40
2018-05-04T04:05:37.964Z,16.40
2018-05-04T04:06:09.602Z,16.40
2018-05-04T04:06:41.247Z,16.40
2018-05-04T04:07:12.860Z,16.30
2018-05-04T04:07:44.486Z,16.30
2018-05-04T04:08:16.120Z,16.40
2018-05-04T04:08:47.744Z,16.40
2018-05-04T04:09:19.384Z,16.40
2018-05-04T04:09:51.032Z,16.40
2018-05-04T04:10:22.676Z,16.50
2018-05-04T04:10:54.318Z,16.50
2018-05-04T04:11:25.953Z,16.50
2018-05-04T04:11:57.592Z,16.60
2018-05-04T04:12:29.253Z,16.60
2018-05-04T04:13:00.888Z,16.60
2018-05-04T04:13:32.528Z,16.60
2018-05-04T04:14:04.168Z,16.60
2018-05-04T04:14:35.826Z,16.60
2018-05-04T04:15:07.460Z,16.70
2018-05-04T04:15:39.108Z,16.70
2018-05-04T04:16:10.744Z,16.70
2018-05-04T04:16:42.384Z,16.70
2018-05-04T04:17:14.021Z,16.80
2018-05-04T04:17:45.653Z,16.90
2018-05-04T04:18:17.266Z,16.90
2018-05-04T04:18:48.912Z,16.70
2018-05-04T04:19:20.536Z,16.80
2018-05-04T04:19:52.160Z,16.90
2018-05-04T04:20:23.796Z,17.00
2018-05-04T04:20:55.422Z,16.90
2018-05-04T04:21:27.062Z,16.90
2018-05-04T04:21:58.710Z,17.00
2018-05-04T04:22:30.360Z,17.00
2018-05-04T04:23:01.982Z,17.00
2018-05-04T04:23:33.616Z,16.90
2018-05-04T04:24:05.280Z,16.90
2018-05-04T04:24:36.926Z,17.00
2018-05-04T04:25:08.597Z,17.00
2018-05-04T04:25:40.231Z,17.20
2018-05-04T04:26:11.864Z,17.20
2018-05-04T04:26:43.508Z,17.20
2018-05-04T04:27:15.136Z,17.20
2018-05-04T04:27:46.762Z,17.20
2018-05-04T04:28:18.399Z,17.10
2018-05-04T04:28:50.048Z,17.10
2018-05-04T04:29:21.678Z,17.10
2018-05-04T04:29:53.289Z,17.20
2018-05-04T04:30:24.919Z,17.50
2018-05-04T04:30:56.556Z,17.80
2018-05-04T04:31:28.209Z,18.00
2018-05-04T04:31:59.851Z,18.10
2018-05-04T04:32:31.469Z,18.10
2018-05-04T04:33:03.124Z,18.10
2018-05-04T04:33:34.746Z,18.10
2018-05-04T04:34:06.386Z,18.10
2018-05-04T04:34:38.031Z,18.10
2018-05-04T04:35:09.694Z,18.10
2018-05-04T04:35:41.372Z,17.90
2018-05-04T04:36:13.020Z,17.80
2018-05-04T04:36:44.637Z,17.70
2018-05-04T04:37:16.271Z,17.70
2018-05-04T04:37:47.911Z,17.60
2018-05-04T04:38:19.528Z,17.60
2018-05-04T04:38:51.251Z,17.50
2018-05-04T04:39:22.814Z,17.60
2018-05-04T04:39:54.422Z,17.60
2018-05-04T04:40:26.067Z,17.70
2018-05-04T04:40:57.703Z,17.70
2018-05-04T04:41:29.334Z,17.80
2018-05-04T04:42:00.966Z,17.90
2018-05-04T04:42:32.600Z,17.90
2018-05-04T04:43:04.229Z,18.00
2018-05-04T04:43:35.875Z,17.90
2018-05-04T04:44:07.516Z,17.80
2018-05-04T04:44:39.150Z,17.70
2018-05-04T04:45:10.784Z,17.60
2018-05-04T04:45:42.421Z,17.50
2018-05-04T04:46:14.047Z,17.50
2018-05-04T04:46:45.682Z,17.30
2018-05-04T04:47:17.310Z,17.30
2018-05-04T04:47:48.922Z,17.30
2018-05-04T04:48:20.548Z,17.20
2018-05-04T04:48:52.197Z,17.00
2018-05-04T04:49:23.835Z,17.00
2018-05-04T04:49:55.473Z,17.00
2018-05-04T04:50:27.113Z,17.00
2018-05-04T04:50:58.734Z,16.80
2018-05-04T04:51:30.373Z,16.60
2018-05-04T04:52:02.040Z,16.30
2018-05-04T04:52:33.671Z,15.80
2018-05-04T04:53:05.292Z,15.60
2018-05-04T04:53:36.912Z,15.20
2018-05-04T04:54:08.542Z,14.70
2018-05-04T04:54:40.158Z,14.90
2018-05-04T04:55:11.780Z,15.20
2018-05-04T04:55:43.421Z,15.50
2018-05-04T04:56:15.053Z,15.80
2018-05-04T04:56:46.666Z,15.90
2018-05-04T04:57:18.303Z,15.80
2018-05-04T04:57:49.933Z,15.70
2018-05-04T04:58:21.573Z,15.50
2018-05-04T04:58:53.188Z,15.30
2018-05-04T04:59:24.798Z,15.40
2018-05-04T04:59:56.424Z,15.50
2018-05-04T05:00:28.110Z,15.30
2018-05-04T05:00:59.770Z,15.10
2018-05-04T05:01:31.414Z,15.00
2018-05-04T05:02:03.073Z,14.80
2018-05-04T05:02:34.703Z,14.80
2018-05-04T05:03:06.313Z,14.70
2018-05-04T05:03:37.917Z,14.90
2018-05-04T05:04:09.585Z,14.70
2018-05-04T05:04:41.214Z,14.50
2018-05-04T05:05:12.832Z,14.40
2018-05-04T05:05:44.483Z,14.30
2018-05-04T05:06:16.110Z,14.00
2018-05-04T05:06:47.734Z,13.90
2018-05-04T05:07:19.360Z,13.90
2018-05-04T05:07:51.000Z,13.90
2018-05-04T05:08:22.628Z,14.00
2018-05-04T05:08:54.258Z,13.80
2018-05-04T05:09:25.867Z,13.60
2018-05-04T05:09:57.520Z,13.60
2018-05-04T05:10:29.164Z,13.50
2018-05-04T05:11:00.791Z,13.50
2018-05-04T05:11:32.438Z,13.50
2018-05-04T05:12:04.108Z,13.40
2018-05-04T05:12:35.754Z,13.20
2018-05-04T05:13:07.395Z,13.30
2018-05-04T05:13:39.044Z,13.50
2018-05-04T05:14:10.683Z,13.50
2018-05-04T05:14:42.308Z,13.40
2018-05-04T05:15:13.929Z,13.30
2018-05-04T05:15:45.563Z,13.30
2018-05-04T05:16:17.190Z,13.20
2018-05-04T05:16:48.822Z,13.10
2018-05-04T05:17:20.465Z,13.00
2018-05-04T05:17:52.131Z,12.90
2018-05-04T05:18:23.774Z,12.70
2018-05-04T05:18:55.401Z,12.70
2018-05-04T05:19:27.027Z,12.50
2018-05-04T05:19:58.670Z,12.30
2018-05-04T05:20:30.288Z,12.10
2018-05-04T05:21:01.924Z,12.00
2018-05-04T05:21:33.564Z,11.80
2018-05-04T05:22:05.244Z,11.60
2018-05-04T05:22:36.833Z,11.10
2018-05-04T05:23:08.479Z,10.60
2018-05-04T05:23:40.115Z,10.40
2018-05-04T05:24:11.751Z,10.20
2018-05-04T05:24:43.357Z,10.10
2018-05-04T05:25:14.977Z,9.80
2018-05-04T05:25:46.602Z,9.80
2018-05-04T05:26:18.264Z,9.70
2018-05-04T05:26:49.934Z,9.60
2018-05-04T05:27:21.555Z,9.50
2018-05-04T05:27:53.212Z,9.60
2018-05-04T05:28:24.852Z,8.90
2018-05-04T05:28:56.492Z,8.60
2018-05-04T05:29:28.138Z,8.80
2018-05-04T05:29:59.777Z,8.20
2018-05-04T05:30:31.415Z,7.60
2018-05-04T05:31:03.043Z,7.50
2018-05-04T05:31:34.686Z,6.90
2018-05-04T05:32:06.319Z,7.00
2018-05-04T05:32:37.941Z,7.20
2018-05-04T05:33:09.573Z,7.30
2018-05-04T05:33:41.212Z,7.30
2018-05-04T05:34:12.859Z,6.20
2018-05-04T05:34:44.479Z,6.10
2018-05-04T05:35:16.098Z,5.80
2018-05-04T05:35:47.715Z,6.00
2018-05-04T05:36:19.356Z,5.80
2018-05-04T05:36:50.999Z,5.70
2018-05-04T05:37:22.635Z,5.70
2018-05-04T05:37:54.258Z,5.60
2018-05-04T05:38:25.889Z,5.80
2018-05-04T05:38:57.527Z,5.60
2018-05-04T05:39:29.130Z,5.40
2018-05-04T05:40:00.744Z,5.30
2018-05-04T05:40:32.377Z,5.00
2018-05-04T05:41:04.000Z,5.00
2018-05-04T05:41:35.625Z,5.00
2018-05-04T05:42:07.253Z,5.00
2018-05-04T05:42:38.896Z,5.00
2018-05-04T05:43:10.524Z,5.00
2018-05-04T05:43:42.161Z,5.00
2018-05-04T05:44:13.774Z,5.00
2018-05-04T05:44:45.409Z,5.00
2018-05-04T05:45:17.019Z,5.00
2018-05-04T05:45:48.648Z,5.00
2018-05-04T05:46:20.296Z,5.00
2018-05-04T05:46:51.919Z,5.00
2018-05-04T05:47:23.538Z,5.00
2018-05-04T05:47:55.197Z,5.00
2018-05-04T05:48:26.850Z,5.00
2018-05-04T05:48:58.487Z,5.00
2018-05-04T05:49:30.122Z,5.00
2018-05-04T05:50:01.763Z,5.00
2018-05-04T05:50:33.436Z,5.00
2018-05-04T05:51:05.086Z,5.00
2018-05-04T05:51:36.730Z,5.00
2018-05-04T05:52:08.404Z,5.00
2018-05-04T05:52:40.019Z,5.00
2018-05-04T05:53:11.659Z,5.00
2018-05-04T05:53:43.301Z,5.00
2018-05-04T05:54:14.938Z,5.00
2018-05-04T05:54:46.574Z,5.00
2018-05-04T05:55:18.228Z,5.00
2018-05-04T05:55:49.896Z,5.00
2018-05-04T05:56:21.538Z,5.00
2018-05-04T05:56:53.179Z,5.00
2018-05-04T05:57:24.823Z,5.00
2018-05-04T05:57:56.510Z,5.00
2018-05-04T05:58:28.106Z,5.00
2018-05-04T05:58:59.720Z,5.00
2018-05-04T05:59:31.356Z,5.00
2018-05-04T06:00:03.034Z,5.00
2018-05-04T06:00:34.674Z,5.00
2018-05-04T06:01:06.296Z,5.00
2018-05-04T06:01:37.934Z,5.00
2018-05-04T06:02:09.596Z,5.00
2018-05-04T06:02:41.218Z,5.00
2018-05-04T06:03:12.860Z,5.00
2018-05-04T06:03:44.518Z,5.00
2018-05-04T06:04:16.148Z,5.00
2018-05-04T06:04:47.778Z,5.00
2018-05-04T06:05:19.426Z,5.00
2018-05-04T06:05:51.063Z,5.00
2018-05-04T06:06:22.696Z,5.00
2018-05-04T06:06:54.328Z,5.00
2018-05-04T06:07:25.945Z,5.00
2018-05-04T06:07:57.576Z,5.00
2018-05-04T06:08:29.186Z,5.00
2018-05-04T06:09:00.786Z,5.00
2018-05-04T06:09:32.406Z,5.00
2018-05-04T06:10:04.043Z,5.00
2018-05-04T06:10:35.668Z,5.00
2018-05-04T06:11:07.287Z,5.00
2018-05-04T06:11:38.929Z,5.00
2018-05-04T06:12:10.584Z,5.00
2018-05-04T06:12:42.238Z,5.00
2018-05-04T06:13:13.836Z,5.00
2018-05-04T06:13:45.466Z,5.00
2018-05-04T06:14:17.110Z,5.00
2018-05-04T06:14:48.775Z,5.00
2018-05-04T06:15:20.396Z,5.00
2018-05-04T06:15:52.028Z,5.00
2018-05-04T06:16:23.682Z,5.00
2018-05-04T06:16:55.326Z,5.00
2018-05-04T06:17:26.950Z,5.00
2018-05-04T06:17:58.574Z,5.00
2018-05-04T06:18:30.208Z,5.00
2018-05-04T06:19:01.850Z,5.00
2018-05-04T06:19:33.489Z,5.00
2018-05-04T06:20:05.138Z,5.00
2018-05-04T06:20:36.780Z,5.00
2018-05-04T06:21:08.408Z,5.00
2018-05-04T06:21:40.044Z,5.00
2018-05-04T06:22:11.682Z,5.00
2018-05-04T06:22:43.316Z,5.00
2018-05-04T06:23:14.958Z,5.00
2018-05-04T06:23:46.606Z,5.00
2018-05-04T06:24:18.238Z,5.00
2018-05-04T06:24:49.867Z,5.00
2018-05-04T06:25:21.492Z,5.00
2018-05-04T06:25:53.138Z,5.00
2018-05-04T06:26:24.767Z,5.00
2018-05-04T06:26:56.386Z,5.00
2018-05-04T06:27:28.017Z,5.00
2018-05-04T06:27:59.653Z,5.00
2018-05-04T06:28:31.312Z,5.00
2018-05-04T06:29:02.977Z,5.00
2018-05-04T06:29:34.624Z,5.00
2018-05-04T06:30:06.263Z,5.00
2018-05-04T06:30:37.892Z,5.00
2018-05-04T06:31:09.522Z,5.00
2018-05-04T06:31:41.160Z,5.00
2018-05-04T06:32:12.792Z,5.00
2018-05-04T06:32:44.450Z,5.00
2018-05-04T06:33:16.078Z,5.00
2018-05-04T06:33:47.764Z,5.00
2018-05-04T06:34:19.357Z,5.00
2018-05-04T06:34:51.062Z,5.00
2018-05-04T06:35:22.688Z,5.00
2018-05-04T06:35:54.302Z,5.00
2018-05-04T06:36:25.970Z,5.00
2018-05-04T06:36:57.594Z,5.00
2018-05-04T06:37:29.246Z,5.00
2018-05-04T06:38:00.866Z,5.00
2018-05-04T06:38:32.500Z,5.00
2018-05-04T06:39:04.218Z,5.00
2018-05-04T06:39:35.900Z,5.00
2018-05-04T06:40:07.500Z,5.00
2018-05-04T06:40:39.134Z,5.00
2018-05-04T06:41:10.762Z,5.00
2018-05-04T06:41:42.396Z,5.00
2018-05-04T06:42:14.042Z,5.00
2018-05-04T06:42:45.684Z,5.00
2018-05-04T06:43:17.303Z,5.00
2018-05-04T06:43:48.920Z,5.00
2018-05-04T06:44:20.562Z,5.00
2018-05-04T06:44:52.184Z,5.00
2018-05-04T06:45:23.816Z,5.00
2018-05-04T06:45:55.452Z,5.00
2018-05-04T06:46:27.110Z,5.00
2018-05-04T06:46:58.734Z,5.00
2018-05-04T06:47:30.400Z,5.00
2018-05-04T06:48:02.050Z,5.00
2018-05-04T06:48:33.702Z,5.00
2018-05-04T06:49:05.323Z,5.00
2018-05-04T06:49:36.960Z,5.00
2018-05-04T06:50:08.593Z,5.00
2018-05-04T06:50:40.220Z,5.00
2018-05-04T06:51:11.833Z,5.00
2018-05-04T06:51:43.466Z,5.00
2018-05-04T06:52:15.104Z,5.00
2018-05-04T06:52:46.731Z,5.00
2018-05-04T06:53:18.361Z,5.00
2018-05-04T06:53:49.985Z,5.00